sensor_id;sensor_type;location;lat;lon;timestamp;pressure;altitude;pressure_sealevel;temperature;humidity
71948;BME280;59820;55.076;38.766;2022-08-14T00:00:12;100391.47;;;16.44;77.97
71948;BME280;59820;55.076;38.766;2022-08-14T00:02:40;100395.31;;;16.40;77.68
71948;BME280;59820;55.076;38.766;2022-08-14T00:05:11;100398.91;;;16.39;77.77
71948;BME280;59820;55.076;38.766;2022-08-14T00:07:38;100393.81;;;16.36;78.02
71948;BME280;59820;55.076;38.766;2022-08-14T00:10:07;100395.59;;;16.36;78.10
71948;BME280;59820;55.076;38.766;2022-08-14T00:12:36;100383.69;;;16.28;78.05
71948;BME280;59820;55.076;38.766;2022-08-14T00:18:08;100366.56;;;16.20;77.67
71948;BME280;59820;55.076;38.766;2022-08-14T00:20:37;100383.69;;;16.28;77.98
71948;BME280;59820;55.076;38.766;2022-08-14T00:23:05;100385.09;;;16.21;78.62
71948;BME280;59820;55.076;38.766;2022-08-14T00:25:32;100381.44;;;16.22;78.54
71948;BME280;59820;55.076;38.766;2022-08-14T00:27:58;100390.06;;;16.26;78.55
71948;BME280;59820;55.076;38.766;2022-08-14T00:30:24;100388.91;;;16.30;78.40
71948;BME280;59820;55.076;38.766;2022-08-14T00:32:52;100386.56;;;16.25;78.55
71948;BME280;59820;55.076;38.766;2022-08-14T00:35:17;100389.66;;;16.32;78.35
71948;BME280;59820;55.076;38.766;2022-08-14T00:37:44;100374.31;;;16.23;78.61
71948;BME280;59820;55.076;38.766;2022-08-14T00:40:13;100358.03;;;16.15;78.81
71948;BME280;59820;55.076;38.766;2022-08-14T00:42:40;100361.09;;;16.08;78.77
71948;BME280;59820;55.076;38.766;2022-08-14T00:45:10;100367.19;;;16.10;78.79
71948;BME280;59820;55.076;38.766;2022-08-14T00:47:37;100390.53;;;16.20;78.79
71948;BME280;59820;55.076;38.766;2022-08-14T00:50:05;100371.22;;;16.16;78.78
71948;BME280;59820;55.076;38.766;2022-08-14T00:52:32;100383.72;;;16.16;78.92
71948;BME280;59820;55.076;38.766;2022-08-14T00:54:59;100380.28;;;16.14;78.93
71948;BME280;59820;55.076;38.766;2022-08-14T00:57:28;100389.09;;;16.14;78.70
71948;BME280;59820;55.076;38.766;2022-08-14T00:59:54;100377.94;;;16.09;78.80
71948;BME280;59820;55.076;38.766;2022-08-14T01:02:22;100384.00;;;16.11;78.71
71948;BME280;59820;55.076;38.766;2022-08-14T01:04:56;100383.47;;;16.06;78.59
71948;BME280;59820;55.076;38.766;2022-08-14T01:07:32;100364.72;;;15.94;78.74
71948;BME280;59820;55.076;38.766;2022-08-14T01:10:01;100372.50;;;15.98;78.80
71948;BME280;59820;55.076;38.766;2022-08-14T01:12:30;100320.72;;;15.63;78.84
71948;BME280;59820;55.076;38.766;2022-08-14T01:15:00;100337.22;;;15.68;78.91
71948;BME280;59820;55.076;38.766;2022-08-14T01:17:30;100388.78;;;15.93;79.07
71948;BME280;59820;55.076;38.766;2022-08-14T01:20:15;100360.75;;;15.74;79.32
71948;BME280;59820;55.076;38.766;2022-08-14T01:23:01;100377.47;;;15.76;79.54
71948;BME280;59820;55.076;38.766;2022-08-14T01:25:27;100372.03;;;15.65;79.35
71948;BME280;59820;55.076;38.766;2022-08-14T01:27:52;100369.59;;;15.62;79.56
71948;BME280;59820;55.076;38.766;2022-08-14T01:30:23;100362.75;;;15.58;79.26
71948;BME280;59820;55.076;38.766;2022-08-14T01:32:52;100381.81;;;15.65;79.25
71948;BME280;59820;55.076;38.766;2022-08-14T01:35:19;100376.81;;;15.60;79.54
71948;BME280;59820;55.076;38.766;2022-08-14T01:37:46;100378.28;;;15.64;79.30
71948;BME280;59820;55.076;38.766;2022-08-14T01:40:13;100376.91;;;15.58;79.99
71948;BME280;59820;55.076;38.766;2022-08-14T01:42:43;100383.84;;;15.61;80.12
71948;BME280;59820;55.076;38.766;2022-08-14T01:45:10;100381.38;;;15.58;80.29
71948;BME280;59820;55.076;38.766;2022-08-14T01:47:39;100381.28;;;15.59;80.56
71948;BME280;59820;55.076;38.766;2022-08-14T01:50:06;100382.34;;;15.57;80.27
71948;BME280;59820;55.076;38.766;2022-08-14T01:52:34;100392.09;;;15.56;80.87
71948;BME280;59820;55.076;38.766;2022-08-14T01:55:06;100382.84;;;15.49;80.89
71948;BME280;59820;55.076;38.766;2022-08-14T01:57:43;100376.69;;;15.49;80.78
71948;BME280;59820;55.076;38.766;2022-08-14T02:00:10;100382.84;;;15.49;81.00
71948;BME280;59820;55.076;38.766;2022-08-14T02:02:43;100397.44;;;15.56;81.31
71948;BME280;59820;55.076;38.766;2022-08-14T02:05:12;100399.47;;;15.53;81.11
71948;BME280;59820;55.076;38.766;2022-08-14T02:07:40;100397.00;;;15.50;81.27
71948;BME280;59820;55.076;38.766;2022-08-14T02:10:10;100386.03;;;15.41;81.21
71948;BME280;59820;55.076;38.766;2022-08-14T02:12:37;100380.44;;;15.32;81.07
71948;BME280;59820;55.076;38.766;2022-08-14T02:15:04;100390.56;;;15.26;80.63
71948;BME280;59820;55.076;38.766;2022-08-14T02:17:32;100387.72;;;15.15;80.51
71948;BME280;59820;55.076;38.766;2022-08-14T02:19:58;100394.53;;;15.19;81.20
71948;BME280;59820;55.076;38.766;2022-08-14T02:22:25;100408.28;;;15.26;81.45
71948;BME280;59820;55.076;38.766;2022-08-14T02:24:51;100405.75;;;15.24;80.89
71948;BME280;59820;55.076;38.766;2022-08-14T02:27:18;100406.69;;;15.23;81.22
71948;BME280;59820;55.076;38.766;2022-08-14T02:29:45;100405.88;;;15.36;80.69
71948;BME280;59820;55.076;38.766;2022-08-14T02:32:12;100420.69;;;15.40;80.74
71948;BME280;59820;55.076;38.766;2022-08-14T02:34:41;100396.00;;;15.38;80.91
71948;BME280;59820;55.076;38.766;2022-08-14T02:37:10;100411.88;;;15.52;80.65
71948;BME280;59820;55.076;38.766;2022-08-14T02:39:42;100418.72;;;15.56;81.10
71948;BME280;59820;55.076;38.766;2022-08-14T02:42:12;100415.81;;;15.47;80.65
71948;BME280;59820;55.076;38.766;2022-08-14T02:44:40;100425.00;;;15.55;81.20
71948;BME280;59820;55.076;38.766;2022-08-14T02:47:06;100419.69;;;15.55;81.40
71948;BME280;59820;55.076;38.766;2022-08-14T02:49:33;100430.00;;;15.60;80.96
71948;BME280;59820;55.076;38.766;2022-08-14T02:52:00;100415.31;;;15.54;80.98
71948;BME280;59820;55.076;38.766;2022-08-14T02:54:26;100422.88;;;15.60;81.07
71948;BME280;59820;55.076;38.766;2022-08-14T02:56:53;100421.09;;;15.61;81.02
71948;BME280;59820;55.076;38.766;2022-08-14T02:59:23;100425.97;;;15.67;81.36
71948;BME280;59820;55.076;38.766;2022-08-14T03:01:50;100423.88;;;15.72;81.19
71948;BME280;59820;55.076;38.766;2022-08-14T03:04:18;100421.31;;;15.71;80.72
71948;BME280;59820;55.076;38.766;2022-08-14T03:06:46;100415.16;;;15.70;80.69
71948;BME280;59820;55.076;38.766;2022-08-14T03:09:12;100433.25;;;15.78;80.46
71948;BME280;59820;55.076;38.766;2022-08-14T03:11:38;100424.63;;;15.74;80.16
71948;BME280;59820;55.076;38.766;2022-08-14T03:14:04;100439.03;;;15.85;79.83
71948;BME280;59820;55.076;38.766;2022-08-14T03:16:30;100437.47;;;15.95;80.12
71948;BME280;59820;55.076;38.766;2022-08-14T03:19:01;100435.03;;;16.05;79.94
71948;BME280;59820;55.076;38.766;2022-08-14T03:21:28;100424.38;;;16.05;79.38
71948;BME280;59820;55.076;38.766;2022-08-14T03:23:56;100390.50;;;15.94;79.82
71948;BME280;59820;55.076;38.766;2022-08-14T03:26:41;100437.47;;;16.21;79.70
71948;BME280;59820;55.076;38.766;2022-08-14T03:29:09;100422.56;;;16.18;80.05
71948;BME280;59820;55.076;38.766;2022-08-14T03:31:37;100413.81;;;16.29;79.45
71948;BME280;59820;55.076;38.766;2022-08-14T03:34:06;100433.09;;;16.45;79.54
71948;BME280;59820;55.076;38.766;2022-08-14T03:36:37;100423.09;;;16.49;79.31
71948;BME280;59820;55.076;38.766;2022-08-14T03:39:07;100433.72;;;16.62;78.97
71948;BME280;59820;55.076;38.766;2022-08-14T03:41:33;100428.59;;;16.72;78.16
71948;BME280;59820;55.076;38.766;2022-08-14T03:44:02;100426.34;;;16.78;77.78
71948;BME280;59820;55.076;38.766;2022-08-14T03:46:36;100426.47;;;16.90;77.17
71948;BME280;59820;55.076;38.766;2022-08-14T03:49:04;100420.69;;;16.96;76.71
71948;BME280;59820;55.076;38.766;2022-08-14T03:51:32;100407.88;;;17.01;75.86
71948;BME280;59820;55.076;38.766;2022-08-14T03:54:00;100430.50;;;17.20;75.91
71948;BME280;59820;55.076;38.766;2022-08-14T03:56:27;100423.53;;;17.30;75.21
71948;BME280;59820;55.076;38.766;2022-08-14T03:58:57;100418.72;;;17.35;75.04
71948;BME280;59820;55.076;38.766;2022-08-14T04:01:25;100432.28;;;17.56;74.56
71948;BME280;59820;55.076;38.766;2022-08-14T04:03:54;100425.88;;;17.70;74.01
71948;BME280;59820;55.076;38.766;2022-08-14T04:06:22;100425.47;;;17.88;73.77
71948;BME280;59820;55.076;38.766;2022-08-14T04:08:48;100428.19;;;17.99;73.55
71948;BME280;59820;55.076;38.766;2022-08-14T04:11:15;100424.56;;;18.11;73.03
71948;BME280;59820;55.076;38.766;2022-08-14T04:13:43;100419.59;;;18.18;72.60
71948;BME280;59820;55.076;38.766;2022-08-14T04:16:20;100415.13;;;18.30;72.79
71948;BME280;59820;55.076;38.766;2022-08-14T04:18:51;100424.63;;;18.45;71.29
71948;BME280;59820;55.076;38.766;2022-08-14T04:21:18;100438.09;;;18.55;71.09
71948;BME280;59820;55.076;38.766;2022-08-14T04:23:48;100436.03;;;18.59;70.61
71948;BME280;59820;55.076;38.766;2022-08-14T04:26:15;100431.66;;;18.58;70.99
71948;BME280;59820;55.076;38.766;2022-08-14T04:28:44;100444.91;;;18.59;71.10
71948;BME280;59820;55.076;38.766;2022-08-14T04:31:11;100398.72;;;18.35;71.57
71948;BME280;59820;55.076;38.766;2022-08-14T04:33:37;100424.59;;;18.57;71.28
71948;BME280;59820;55.076;38.766;2022-08-14T04:36:04;100433.97;;;18.62;71.37
71948;BME280;59820;55.076;38.766;2022-08-14T04:38:30;100446.34;;;18.63;71.78
71948;BME280;59820;55.076;38.766;2022-08-14T04:41:14;100434.81;;;18.74;71.60
71948;BME280;59820;55.076;38.766;2022-08-14T04:43:59;100438.69;;;18.93;71.15
71948;BME280;59820;55.076;38.766;2022-08-14T04:46:25;100396.16;;;18.78;70.74
71948;BME280;59820;55.076;38.766;2022-08-14T04:48:53;100437.44;;;19.20;70.33
71948;BME280;59820;55.076;38.766;2022-08-14T04:51:21;100436.31;;;19.33;69.90
71948;BME280;59820;55.076;38.766;2022-08-14T04:53:53;100414.56;;;19.27;69.42
71948;BME280;59820;55.076;38.766;2022-08-14T04:56:22;100412.38;;;19.53;68.54
71948;BME280;59820;55.076;38.766;2022-08-14T04:58:51;100428.50;;;19.74;68.39
71948;BME280;59820;55.076;38.766;2022-08-14T05:01:20;100434.38;;;19.89;67.36
71948;BME280;59820;55.076;38.766;2022-08-14T05:03:46;100437.59;;;20.04;67.28
71948;BME280;59820;55.076;38.766;2022-08-14T05:06:14;100436.28;;;20.20;66.30
71948;BME280;59820;55.076;38.766;2022-08-14T05:08:40;100443.84;;;20.36;65.92
71948;BME280;59820;55.076;38.766;2022-08-14T05:11:08;100445.72;;;20.45;65.43
71948;BME280;59820;55.076;38.766;2022-08-14T05:13:35;100444.38;;;20.60;65.19
71948;BME280;59820;55.076;38.766;2022-08-14T05:16:05;100432.31;;;20.76;63.56
71948;BME280;59820;55.076;38.766;2022-08-14T05:18:37;100431.38;;;20.87;63.25
71948;BME280;59820;55.076;38.766;2022-08-14T05:21:05;100437.19;;;20.92;63.28
71948;BME280;59820;55.076;38.766;2022-08-14T05:23:37;100442.59;;;21.11;63.39
71948;BME280;59820;55.076;38.766;2022-08-14T05:26:05;100417.91;;;21.17;62.11
71948;BME280;59820;55.076;38.766;2022-08-14T05:28:39;100423.41;;;21.26;60.92
71948;BME280;59820;55.076;38.766;2022-08-14T05:31:09;100435.72;;;21.38;61.16
71948;BME280;59820;55.076;38.766;2022-08-14T05:33:39;100429.94;;;21.52;60.87
71948;BME280;59820;55.076;38.766;2022-08-14T05:36:07;100409.47;;;21.61;60.26
71948;BME280;59820;55.076;38.766;2022-08-14T05:38:40;100429.50;;;21.86;59.79
71948;BME280;59820;55.076;38.766;2022-08-14T05:41:09;100426.53;;;22.09;59.85
71948;BME280;59820;55.076;38.766;2022-08-14T05:43:37;100432.81;;;22.28;58.54
71948;BME280;59820;55.076;38.766;2022-08-14T05:46:03;100427.28;;;22.39;57.46
71948;BME280;59820;55.076;38.766;2022-08-14T05:48:30;100394.88;;;22.41;57.81
71948;BME280;59820;55.076;38.766;2022-08-14T05:50:56;100411.78;;;22.61;56.64
71948;BME280;59820;55.076;38.766;2022-08-14T05:53:25;100432.00;;;22.93;55.96
71948;BME280;59820;55.076;38.766;2022-08-14T05:55:51;100417.16;;;22.88;55.47
71948;BME280;59820;55.076;38.766;2022-08-14T05:58:18;100433.47;;;23.15;55.99
71948;BME280;59820;55.076;38.766;2022-08-14T06:00:45;100429.13;;;23.32;54.25
71948;BME280;59820;55.076;38.766;2022-08-14T06:03:21;100396.72;;;23.24;55.25
71948;BME280;59820;55.076;38.766;2022-08-14T06:05:52;100392.16;;;23.42;52.90
71948;BME280;59820;55.076;38.766;2022-08-14T06:08:30;100425.41;;;23.69;52.97
71948;BME280;59820;55.076;38.766;2022-08-14T06:11:02;100420.47;;;23.82;53.15
71948;BME280;59820;55.076;38.766;2022-08-14T06:13:33;100424.25;;;23.90;51.56
71948;BME280;59820;55.076;38.766;2022-08-14T06:15:59;100414.53;;;23.97;51.55
71948;BME280;59820;55.076;38.766;2022-08-14T06:18:26;100413.44;;;24.08;51.39
71948;BME280;59820;55.076;38.766;2022-08-14T06:20:53;100421.41;;;24.17;50.31
71948;BME280;59820;55.076;38.766;2022-08-14T06:23:19;100403.53;;;24.16;44.06
71948;BME280;59820;55.076;38.766;2022-08-14T06:25:45;100412.19;;;24.28;45.28
71948;BME280;59820;55.076;38.766;2022-08-14T06:28:19;100420.53;;;24.43;45.85
71948;BME280;59820;55.076;38.766;2022-08-14T06:30:46;100420.50;;;24.61;46.33
71948;BME280;59820;55.076;38.766;2022-08-14T06:33:12;100397.13;;;24.52;44.67
71948;BME280;59820;55.076;38.766;2022-08-14T06:35:38;100415.31;;;24.76;45.24
71948;BME280;59820;55.076;38.766;2022-08-14T06:38:04;100417.19;;;24.84;42.77
71948;BME280;59820;55.076;38.766;2022-08-14T06:40:33;100415.38;;;24.93;43.64
71948;BME280;59820;55.076;38.766;2022-08-14T06:43:08;100406.75;;;24.89;45.25
71948;BME280;59820;55.076;38.766;2022-08-14T06:45:36;100393.38;;;24.71;47.38
71948;BME280;59820;55.076;38.766;2022-08-14T06:48:03;100414.31;;;24.77;47.33
71948;BME280;59820;55.076;38.766;2022-08-14T06:50:30;100415.09;;;24.61;47.89
71948;BME280;59820;55.076;38.766;2022-08-14T06:52:57;100419.50;;;24.62;47.46
71948;BME280;59820;55.076;38.766;2022-08-14T06:55:24;100416.56;;;24.55;45.83
71948;BME280;59820;55.076;38.766;2022-08-14T06:57:50;100399.63;;;24.45;45.56
71948;BME280;59820;55.076;38.766;2022-08-14T07:00:22;100419.09;;;24.57;46.43
71948;BME280;59820;55.076;38.766;2022-08-14T07:02:49;100427.59;;;24.62;46.90
71948;BME280;59820;55.076;38.766;2022-08-14T07:05:35;100405.66;;;24.65;46.97
71948;BME280;59820;55.076;38.766;2022-08-14T07:08:19;100419.75;;;24.85;46.68
71948;BME280;59820;55.076;38.766;2022-08-14T07:10:48;100416.75;;;24.97;44.74
71948;BME280;59820;55.076;38.766;2022-08-14T07:13:15;100403.75;;;25.00;45.18
71948;BME280;59820;55.076;38.766;2022-08-14T07:15:47;100424.03;;;25.21;43.95
71948;BME280;59820;55.076;38.766;2022-08-14T07:18:23;100421.03;;;25.24;45.02
71948;BME280;59820;55.076;38.766;2022-08-14T07:20:50;100423.03;;;25.14;45.69
71948;BME280;59820;55.076;38.766;2022-08-14T07:23:17;100413.09;;;25.22;46.27
71948;BME280;59820;55.076;38.766;2022-08-14T07:25:44;100403.34;;;25.38;46.04
71948;BME280;59820;55.076;38.766;2022-08-14T07:28:18;100418.41;;;25.57;45.83
71948;BME280;59820;55.076;38.766;2022-08-14T07:30:44;100418.41;;;25.65;46.28
71948;BME280;59820;55.076;38.766;2022-08-14T07:33:11;100399.31;;;25.75;45.28
71948;BME280;59820;55.076;38.766;2022-08-14T07:35:39;100413.81;;;25.99;45.44
71948;BME280;59820;55.076;38.766;2022-08-14T07:38:06;100406.06;;;26.04;45.44
71948;BME280;59820;55.076;38.766;2022-08-14T07:40:32;100413.13;;;26.21;44.78
71948;BME280;59820;55.076;38.766;2022-08-14T07:42:59;100425.13;;;26.27;42.78
71948;BME280;59820;55.076;38.766;2022-08-14T07:45:27;100405.31;;;26.27;42.45
71948;BME280;59820;55.076;38.766;2022-08-14T07:47:53;100407.84;;;26.28;42.49
71948;BME280;59820;55.076;38.766;2022-08-14T07:50:23;100419.69;;;26.35;42.84
71948;BME280;59820;55.076;38.766;2022-08-14T07:52:48;100425.41;;;26.40;40.18
71948;BME280;59820;55.076;38.766;2022-08-14T07:55:16;100409.16;;;26.40;41.19
71948;BME280;59820;55.076;38.766;2022-08-14T07:57:43;100417.41;;;26.55;39.81
71948;BME280;59820;55.076;38.766;2022-08-14T08:00:17;100396.91;;;26.61;40.32
71948;BME280;59820;55.076;38.766;2022-08-14T08:02:46;100411.13;;;26.63;39.31
71948;BME280;59820;55.076;38.766;2022-08-14T08:05:13;100402.56;;;26.43;39.70
71948;BME280;59820;55.076;38.766;2022-08-14T08:07:41;100411.34;;;26.53;37.85
71948;BME280;59820;55.076;38.766;2022-08-14T08:10:13;100415.06;;;26.52;37.91
71948;BME280;59820;55.076;38.766;2022-08-14T08:13:17;100415.84;;;26.61;38.69
71948;BME280;59820;55.076;38.766;2022-08-14T08:15:52;100409.56;;;26.77;38.18
71948;BME280;59820;55.076;38.766;2022-08-14T08:18:21;100410.00;;;26.97;38.29
71948;BME280;59820;55.076;38.766;2022-08-14T08:20:52;100412.09;;;27.10;37.79
71948;BME280;59820;55.076;38.766;2022-08-14T08:23:20;100402.66;;;27.29;37.19
71948;BME280;59820;55.076;38.766;2022-08-14T08:25:50;100393.09;;;27.18;38.31
71948;BME280;59820;55.076;38.766;2022-08-14T08:28:23;100414.50;;;27.36;37.51
71948;BME280;59820;55.076;38.766;2022-08-14T08:31:09;100403.75;;;27.20;37.67
71948;BME280;59820;55.076;38.766;2022-08-14T08:33:37;100403.16;;;27.33;38.24
71948;BME280;59820;55.076;38.766;2022-08-14T08:36:06;100405.22;;;27.54;37.60
71948;BME280;59820;55.076;38.766;2022-08-14T08:38:33;100397.78;;;27.71;36.68
71948;BME280;59820;55.076;38.766;2022-08-14T08:40:59;100394.94;;;27.64;36.81
71948;BME280;59820;55.076;38.766;2022-08-14T08:43:30;100392.00;;;27.74;35.81
71948;BME280;59820;55.076;38.766;2022-08-14T08:46:04;100382.63;;;27.76;36.47
71948;BME280;59820;55.076;38.766;2022-08-14T08:48:52;100386.44;;;27.90;36.02
71948;BME280;59820;55.076;38.766;2022-08-14T08:53:58;100374.34;;;27.78;35.82
71948;BME280;59820;55.076;38.766;2022-08-14T08:56:41;100386.34;;;27.99;34.96
71948;BME280;59820;55.076;38.766;2022-08-14T08:59:27;100390.03;;;28.06;36.60
71948;BME280;59820;55.076;38.766;2022-08-14T09:04:30;100384.13;;;28.17;35.78
71948;BME280;59820;55.076;38.766;2022-08-14T09:06:58;100395.28;;;28.22;36.14
71948;BME280;59820;55.076;38.766;2022-08-14T09:09:27;100358.13;;;28.08;35.33
71948;BME280;59820;55.076;38.766;2022-08-14T09:11:54;100384.13;;;28.32;34.36
71948;BME280;59820;55.076;38.766;2022-08-14T09:14:24;100372.91;;;28.05;35.00
71948;BME280;59820;55.076;38.766;2022-08-14T09:16:52;100382.00;;;28.13;34.69
71948;BME280;59820;55.076;38.766;2022-08-14T09:19:19;100382.09;;;28.19;34.26
71948;BME280;59820;55.076;38.766;2022-08-14T09:21:46;100373.00;;;28.12;34.08
71948;BME280;59820;55.076;38.766;2022-08-14T09:24:12;100379.94;;;28.30;33.91
71948;BME280;59820;55.076;38.766;2022-08-14T09:26:41;100366.16;;;28.46;33.98
71948;BME280;59820;55.076;38.766;2022-08-14T09:29:08;100378.31;;;28.80;33.75
71948;BME280;59820;55.076;38.766;2022-08-14T09:31:37;100388.81;;;29.05;33.27
71948;BME280;59820;55.076;38.766;2022-08-14T09:39:51;100382.09;;;29.01;31.05
71948;BME280;59820;55.076;38.766;2022-08-14T09:45:18;100358.53;;;29.08;31.99
71948;BME280;59820;55.076;38.766;2022-08-14T09:47:53;100374.09;;;29.36;32.26
71948;BME280;59820;55.076;38.766;2022-08-14T09:50:21;100371.41;;;29.21;31.18
71948;BME280;59820;55.076;38.766;2022-08-14T09:52:53;100363.84;;;28.94;31.50
71948;BME280;59820;55.076;38.766;2022-08-14T09:55:21;100373.59;;;29.25;31.75
71948;BME280;59820;55.076;38.766;2022-08-14T09:57:49;100354.63;;;29.32;31.05
71948;BME280;59820;55.076;38.766;2022-08-14T10:00:17;100360.22;;;29.52;31.93
71948;BME280;59820;55.076;38.766;2022-08-14T10:02:56;100369.75;;;29.63;31.56
71948;BME280;59820;55.076;38.766;2022-08-14T10:05:31;100372.59;;;29.55;32.18
71948;BME280;59820;55.076;38.766;2022-08-14T10:08:03;100369.31;;;29.38;31.75
71948;BME280;59820;55.076;38.766;2022-08-14T10:10:38;100364.66;;;29.32;31.85
71948;BME280;59820;55.076;38.766;2022-08-14T10:13:07;100358.19;;;29.33;31.45
71948;BME280;59820;55.076;38.766;2022-08-14T10:15:37;100368.78;;;29.49;31.38
71948;BME280;59820;55.076;38.766;2022-08-14T10:18:13;100353.22;;;29.36;31.71
71948;BME280;59820;55.076;38.766;2022-08-14T10:20:57;100362.06;;;29.45;31.84
71948;BME280;59820;55.076;38.766;2022-08-14T10:23:25;100371.84;;;29.39;31.58
71948;BME280;59820;55.076;38.766;2022-08-14T10:25:57;100361.56;;;29.35;31.96
71948;BME280;59820;55.076;38.766;2022-08-14T10:28:41;100367.69;;;29.43;31.90
71948;BME280;59820;55.076;38.766;2022-08-14T10:31:26;100380.63;;;29.41;31.28
71948;BME280;59820;55.076;38.766;2022-08-14T10:34:06;100380.81;;;29.40;31.36
71948;BME280;59820;55.076;38.766;2022-08-14T10:36:39;100367.16;;;29.33;31.25
71948;BME280;59820;55.076;38.766;2022-08-14T10:39:20;100374.91;;;29.58;31.30
71948;BME280;59820;55.076;38.766;2022-08-14T10:41:48;100375.63;;;29.67;31.79
71948;BME280;59820;55.076;38.766;2022-08-14T10:44:16;100373.16;;;29.72;31.57
71948;BME280;59820;55.076;38.766;2022-08-14T10:46:53;100357.47;;;29.74;31.30
71948;BME280;59820;55.076;38.766;2022-08-14T10:49:28;100358.00;;;29.84;31.53
71948;BME280;59820;55.076;38.766;2022-08-14T10:57:10;100378.66;;;30.07;31.47
71948;BME280;59820;55.076;38.766;2022-08-14T10:59:43;100364.22;;;30.06;30.57
71948;BME280;59820;55.076;38.766;2022-08-14T11:10:22;100366.19;;;29.91;31.43
71948;BME280;59820;55.076;38.766;2022-08-14T11:12:51;100374.06;;;30.07;30.81
71948;BME280;59820;55.076;38.766;2022-08-14T11:15:27;100377.69;;;30.15;31.34
71948;BME280;59820;55.076;38.766;2022-08-14T11:17:56;100369.50;;;30.15;30.63
71948;BME280;59820;55.076;38.766;2022-08-14T11:20:26;100369.25;;;30.09;31.48
71948;BME280;59820;55.076;38.766;2022-08-14T11:22:56;100360.69;;;30.12;31.96
71948;BME280;59820;55.076;38.766;2022-08-14T11:25:29;100371.31;;;30.42;31.03
71948;BME280;59820;55.076;38.766;2022-08-14T11:27:59;100369.94;;;30.53;30.76
71948;BME280;59820;55.076;38.766;2022-08-14T11:30:28;100367.66;;;30.63;31.54
71948;BME280;59820;55.076;38.766;2022-08-14T11:32:56;100368.31;;;30.66;30.32
71948;BME280;59820;55.076;38.766;2022-08-14T11:35:25;100360.78;;;30.68;31.19
71948;BME280;59820;55.076;38.766;2022-08-14T11:37:54;100363.66;;;30.59;31.78
71948;BME280;59820;55.076;38.766;2022-08-14T11:40:22;100362.00;;;30.65;31.55
71948;BME280;59820;55.076;38.766;2022-08-14T11:42:51;100361.13;;;30.51;31.50
71948;BME280;59820;55.076;38.766;2022-08-14T11:45:26;100353.81;;;30.52;31.43
71948;BME280;59820;55.076;38.766;2022-08-14T11:47:56;100348.16;;;30.53;32.14
71948;BME280;59820;55.076;38.766;2022-08-14T11:50:29;100364.16;;;30.76;31.82
71948;BME280;59820;55.076;38.766;2022-08-14T11:52:56;100351.22;;;30.99;30.51
71948;BME280;59820;55.076;38.766;2022-08-14T11:55:25;100357.81;;;31.24;33.01
71948;BME280;59820;55.076;38.766;2022-08-14T11:58:08;100351.31;;;31.45;30.57
71948;BME280;59820;55.076;38.766;2022-08-14T12:00:54;100340.81;;;31.36;30.21
71948;BME280;59820;55.076;38.766;2022-08-14T12:06:10;100340.41;;;31.79;28.76
71948;BME280;59820;55.076;38.766;2022-08-14T12:08:37;100333.91;;;31.67;28.99
71948;BME280;59820;55.076;38.766;2022-08-14T12:11:04;100321.50;;;31.71;28.21
71948;BME280;59820;55.076;38.766;2022-08-14T12:13:32;100327.41;;;31.81;29.05
71948;BME280;59820;55.076;38.766;2022-08-14T12:16:03;100304.31;;;31.63;28.31
71948;BME280;59820;55.076;38.766;2022-08-14T12:18:41;100332.78;;;32.08;28.29
71948;BME280;59820;55.076;38.766;2022-08-14T12:21:18;100317.28;;;31.95;28.28
71948;BME280;59820;55.076;38.766;2022-08-14T12:23:45;100316.03;;;31.97;27.61
71948;BME280;59820;55.076;38.766;2022-08-14T12:26:17;100330.69;;;32.10;28.06
71948;BME280;59820;55.076;38.766;2022-08-14T12:28:49;100334.03;;;32.12;27.42
71948;BME280;59820;55.076;38.766;2022-08-14T12:31:18;100321.03;;;32.21;27.52
71948;BME280;59820;55.076;38.766;2022-08-14T12:33:58;100329.81;;;32.29;27.69
71948;BME280;59820;55.076;38.766;2022-08-14T12:36:25;100318.06;;;32.29;28.23
71948;BME280;59820;55.076;38.766;2022-08-14T12:38:56;100326.88;;;32.24;27.37
71948;BME280;59820;55.076;38.766;2022-08-14T12:41:25;100327.06;;;32.29;27.36
71948;BME280;59820;55.076;38.766;2022-08-14T12:44:00;100288.63;;;32.31;28.35
71948;BME280;59820;55.076;38.766;2022-08-14T12:46:31;100323.50;;;32.29;27.72
71948;BME280;59820;55.076;38.766;2022-08-14T12:49:08;100321.91;;;32.53;27.88
71948;BME280;59820;55.076;38.766;2022-08-14T12:51:35;100320.81;;;32.74;27.71
71948;BME280;59820;55.076;38.766;2022-08-14T12:54:18;100317.50;;;32.97;25.70
71948;BME280;59820;55.076;38.766;2022-08-14T12:56:46;100321.03;;;33.05;25.07
71948;BME280;59820;55.076;38.766;2022-08-14T12:59:14;100318.28;;;33.05;24.97
71948;BME280;59820;55.076;38.766;2022-08-14T13:01:44;100311.19;;;33.29;23.86
71948;BME280;59820;55.076;38.766;2022-08-14T13:04:14;100291.72;;;33.12;24.70
71948;BME280;59820;55.076;38.766;2022-08-14T13:06:45;100295.97;;;33.08;23.94
71948;BME280;59820;55.076;38.766;2022-08-14T13:09:16;100303.78;;;33.04;23.66
71948;BME280;59820;55.076;38.766;2022-08-14T13:11:45;100296.66;;;33.03;24.77
71948;BME280;59820;55.076;38.766;2022-08-14T13:14:15;100301.69;;;32.68;24.19
71948;BME280;59820;55.076;38.766;2022-08-14T13:16:42;100317.44;;;32.72;24.95
71948;BME280;59820;55.076;38.766;2022-08-14T13:19:14;100308.94;;;32.48;24.88
71948;BME280;59820;55.076;38.766;2022-08-14T13:21:42;100311.03;;;31.81;24.41
71948;BME280;59820;55.076;38.766;2022-08-14T13:24:12;100308.53;;;31.59;25.60
71948;BME280;59820;55.076;38.766;2022-08-14T13:26:45;100295.94;;;31.45;26.38